Time;durP1;ratioP1;P1;durP2;ratioP2;P2;SDS_P1;SDS_P2;PMS_P1;PMS_P2;Temp;Humidity;BMP_temperature;BMP_pressure;BME280_temperature;BME280_humidity;BME280_pressure;Samples;Min_cycle;Max_cycle;Signal;HPM_P1;HPM_P2
2023/03/06 00:00:47;;;;;;;6.05;2.13;;;;;;;;;;5054185;28;20044;-76
2023/03/06 00:03:13;;;;;;;8.52;2.10;;;;;;;;;;5035838;28;20099;-76
2023/03/06 00:05:40;;;;;;;8.98;2.20;;;;;;;;;;5053430;28;20056;-76
2023/03/06 00:08:06;;;;;;;7.65;2.10;;;;;;;;;;5052918;28;20552;-76
2023/03/06 00:10:32;;;;;;;8.23;2.60;;;;;;;;;;5054371;28;20072;-77
2023/03/06 00:12:59;;;;;;;5.63;2.05;;;;;;;;;;5060849;28;20048;-76
2023/03/06 00:15:26;;;;;;;7.32;2.22;;;;;;;;;;5047591;28;20052;-76
2023/03/06 00:17:52;;;;;;;9.90;2.35;;;;;;;;;;5054090;28;20041;-76
2023/03/06 00:20:19;;;;;;;7.65;2.78;;;;;;;;;;5052452;28;20047;-76
2023/03/06 00:22:45;;;;;;;7.15;2.22;;;;;;;;;;5052985;28;20395;-76
2023/03/06 00:25:16;;;;;;;7.57;2.00;;;;;;;;;;5035683;28;20043;-76
2023/03/06 00:27:42;;;;;;;3.58;1.73;;;;;;;;;;5052494;28;20102;-76
2023/03/06 00:30:10;;;;;;;7.50;2.13;;;;;;;;;;5052024;28;20053;-76
2023/03/06 00:32:36;;;;;;;5.40;1.98;;;;;;;;;;5052568;28;20044;-76
2023/03/06 00:35:02;;;;;;;6.25;2.25;;;;;;;;;;5052322;28;20080;-76
2023/03/06 00:37:28;;;;;;;8.70;2.33;;;;;;;;;;5053599;28;20049;-76
2023/03/06 00:39:55;;;;;;;6.90;2.25;;;;;;;;;;5053400;28;20124;-76
2023/03/06 00:42:21;;;;;;;4.05;2.00;;;;;;;;;;5035680;28;20037;-76
2023/03/06 00:44:47;;;;;;;5.80;2.10;;;;;;;;;;5035762;28;20118;-76
2023/03/06 00:47:16;;;;;;;7.53;1.85;;;;;;;;;;5052322;28;20033;-76
2023/03/06 00:49:42;;;;;;;5.63;2.10;;;;;;;;;;5052376;28;20376;-76
2023/03/06 00:52:08;;;;;;;6.57;1.85;;;;;;;;;;5059137;28;20436;-76
2023/03/06 00:54:34;;;;;;;8.25;1.95;;;;;;;;;;5047993;28;20380;-76
2023/03/06 00:57:00;;;;;;;6.40;1.88;;;;;;;;;;5052213;28;20079;-76
2023/03/06 00:59:26;;;;;;;6.10;2.05;;;;;;;;;;5051590;28;20036;-76
2023/03/06 01:01:53;;;;;;;5.50;2.00;;;;;;;;;;5047295;28;20033;-76
2023/03/06 01:04:19;;;;;;;7.78;1.80;;;;;;;;;;5052763;28;20090;-75
2023/03/06 01:06:45;;;;;;;5.97;1.60;;;;;;;;;;5050935;28;20120;-75
2023/03/06 01:09:12;;;;;;;5.07;1.70;;;;;;;;;;5049562;28;20044;-76
2023/03/06 01:11:38;;;;;;;6.15;1.67;;;;;;;;;;5045787;28;20055;-76
2023/03/06 01:14:04;;;;;;;4.43;1.50;;;;;;;;;;5053162;28;20491;-76
2023/03/06 01:16:31;;;;;;;4.05;1.42;;;;;;;;;;5051418;28;20122;-76
2023/03/06 01:18:57;;;;;;;8.07;1.58;;;;;;;;;;5051488;28;20053;-76
2023/03/06 01:21:23;;;;;;;5.32;1.45;;;;;;;;;;5052937;28;20040;-76
2023/03/06 01:23:49;;;;;;;6.50;1.40;;;;;;;;;;5051574;28;20106;-75
2023/03/06 01:26:15;;;;;;;6.55;1.50;;;;;;;;;;5051294;28;20089;-76
2023/03/06 01:28:41;;;;;;;3.83;1.35;;;;;;;;;;5051490;28;20049;-76
2023/03/06 01:31:08;;;;;;;4.32;1.42;;;;;;;;;;5067857;28;20048;-76
2023/03/06 01:33:34;;;;;;;4.45;1.40;;;;;;;;;;5034422;28;20041;-75
2023/03/06 01:36:03;;;;;;;2.28;1.10;;;;;;;;;;5051665;28;20488;-76
2023/03/06 01:38:29;;;;;;;5.68;1.50;;;;;;;;;;5034532;28;20037;-76
2023/03/06 01:40:55;;;;;;;5.40;1.45;;;;;;;;;;5051219;28;20029;-76
2023/03/06 01:43:31;;;;;;;3.45;1.23;;;;;;;;;;5051352;28;20191;-77
2023/03/06 01:46:20;;;;;;;4.15;1.30;;;;;;;;;;5051491;28;20491;-76
2023/03/06 01:48:46;;;;;;;6.25;1.48;;;;;;;;;;5051440;28;20395;-76
2023/03/06 01:51:13;;;;;;;4.18;1.50;;;;;;;;;;5051246;28;20487;-76
2023/03/06 01:53:39;;;;;;;4.13;1.33;;;;;;;;;;5018325;28;20049;-75
2023/03/06 01:56:06;;;;;;;6.55;1.40;;;;;;;;;;5052439;28;20399;-76
2023/03/06 01:58:32;;;;;;;5.68;1.77;;;;;;;;;;5050804;28;20056;-76
2023/03/06 02:00:58;;;;;;;4.50;1.50;;;;;;;;;;5064279;28;20033;-76
2023/03/06 02:03:26;;;;;;;4.90;1.48;;;;;;;;;;5050777;28;20041;-76
2023/03/06 02:05:52;;;;;;;4.57;1.67;;;;;;;;;;5052121;28;20049;-76
2023/03/06 02:08:19;;;;;;;7.35;1.58;;;;;;;;;;5050997;28;20132;-76
2023/03/06 02:10:55;;;;;;;4.03;1.17;;;;;;;;;;5034201;28;20045;-77
2023/03/06 02:13:21;;;;;;;6.75;1.60;;;;;;;;;;5051127;28;20561;-77
2023/03/06 02:15:47;;;;;;;7.43;1.50;;;;;;;;;;5051975;28;20041;-77
2023/03/06 02:18:13;;;;;;;8.45;1.70;;;;;;;;;;5053063;28;20102;-76
2023/03/06 02:20:44;;;;;;;8.73;1.63;;;;;;;;;;5054731;28;20052;-76
2023/03/06 02:23:22;;;;;;;9.32;1.60;;;;;;;;;;5054874;28;20048;-77
2023/03/06 02:25:50;;;;;;;6.82;1.75;;;;;;;;;;5054870;28;20041;-76
2023/03/06 02:28:17;;;;;;;5.28;1.70;;;;;;;;;;5055064;28;20048;-75
2023/03/06 02:30:44;;;;;;;7.65;1.95;;;;;;;;;;5054412;28;20055;-76
2023/03/06 02:33:12;;;;;;;5.15;2.00;;;;;;;;;;5054958;28;20403;-76
2023/03/06 02:35:39;;;;;;;4.30;2.00;;;;;;;;;;5054454;28;20048;-75
2023/03/06 02:38:10;;;;;;;4.78;1.90;;;;;;;;;;5054925;28;20507;-76
2023/03/06 02:40:36;;;;;;;3.00;1.70;;;;;;;;;;5054158;28;20033;-76
2023/03/06 02:43:02;;;;;;;5.57;1.92;;;;;;;;;;5054837;28;20045;-76
2023/03/06 02:45:31;;;;;;;5.93;1.90;;;;;;;;;;5054162;28;20128;-76
2023/03/06 02:47:57;;;;;;;3.75;1.90;;;;;;;;;;5054644;28;20041;-78
2023/03/06 02:50:23;;;;;;;3.17;1.52;;;;;;;;;;5054409;28;20044;-78
2023/03/06 02:52:49;;;;;;;4.35;1.70;;;;;;;;;;5071454;28;20052;-78
2023/03/06 02:55:15;;;;;;;4.22;1.55;;;;;;;;;;5054537;28;20099;-78
2023/03/06 02:57:41;;;;;;;3.88;1.83;;;;;;;;;;5049098;28;20116;-78
2023/03/06 03:00:08;;;;;;;5.40;1.58;;;;;;;;;;5046153;28;20829;-77
2023/03/06 03:02:34;;;;;;;4.50;1.40;;;;;;;;;;5052046;28;20037;-76
2023/03/06 03:05:00;;;;;;;5.22;1.40;;;;;;;;;;5053250;28;20048;-76
2023/03/06 03:07:26;;;;;;;4.95;1.30;;;;;;;;;;5053174;28;20040;-75
2023/03/06 03:09:52;;;;;;;3.30;1.10;;;;;;;;;;5087863;28;20491;-76
2023/03/06 03:12:18;;;;;;;4.43;1.10;;;;;;;;;;5065154;28;20421;-77
2023/03/06 03:14:44;;;;;;;2.72;1.05;;;;;;;;;;5053701;28;20045;-76
2023/03/06 03:17:10;;;;;;;2.20;0.80;;;;;;;;;;5078443;28;20045;-77
2023/03/06 03:19:36;;;;;;;2.05;0.80;;;;;;;;;;5052690;28;20041;-76
2023/03/06 03:22:02;;;;;;;3.97;0.90;;;;;;;;;;5053728;28;20082;-76
2023/03/06 03:24:28;;;;;;;3.85;1.00;;;;;;;;;;5053523;28;20120;-76
2023/03/06 03:26:54;;;;;;;3.00;0.70;;;;;;;;;;5054750;28;20428;-77
2023/03/06 03:29:22;;;;;;;2.63;0.90;;;;;;;;;;5053323;28;20045;-77
2023/03/06 03:31:48;;;;;;;1.98;0.95;;;;;;;;;;5052573;28;20132;-76
2023/03/06 03:34:14;;;;;;;3.30;1.17;;;;;;;;;;5054706;28;20041;-76
2023/03/06 03:36:40;;;;;;;2.05;1.00;;;;;;;;;;5053174;28;20059;-77
2023/03/06 03:39:06;;;;;;;3.53;1.00;;;;;;;;;;5053766;28;20126;-77
2023/03/06 03:41:33;;;;;;;7.25;0.90;;;;;;;;;;5036070;28;20094;-78
2023/03/06 03:43:59;;;;;;;2.38;0.90;;;;;;;;;;5042755;28;20036;-78
2023/03/06 03:46:25;;;;;;;3.03;0.98;;;;;;;;;;5054701;28;20411;-78
2023/03/06 03:48:52;;;;;;;2.22;0.90;;;;;;;;;;5065000;28;20048;-78
2023/03/06 03:51:18;;;;;;;4.28;1.15;;;;;;;;;;5062590;28;20049;-78
2023/03/06 03:53:44;;;;;;;2.40;0.98;;;;;;;;;;5068495;28;20036;-78
2023/03/06 03:56:12;;;;;;;3.28;1.20;;;;;;;;;;5079200;28;20388;-77
2023/03/06 03:58:38;;;;;;;2.50;1.13;;;;;;;;;;5058000;28;20053;-78
2023/03/06 04:01:04;;;;;;;4.05;1.10;;;;;;;;;;5060086;28;20039;-78
2023/03/06 04:03:30;;;;;;;2.33;0.93;;;;;;;;;;5073193;28;20052;-77
2023/03/06 04:05:56;;;;;;;2.92;1.00;;;;;;;;;;5068150;28;20392;-78
2023/03/06 04:08:23;;;;;;;2.55;0.90;;;;;;;;;;5065688;28;20133;-78
2023/03/06 04:10:52;;;;;;;3.72;1.00;;;;;;;;;;5072540;28;20044;-78
2023/03/06 04:13:20;;;;;;;4.35;1.13;;;;;;;;;;5064634;28;20040;-78
2023/03/06 04:15:51;;;;;;;5.60;1.30;;;;;;;;;;5050817;28;20598;-76
2023/03/06 04:18:17;;;;;;;5.10;1.40;;;;;;;;;;5044039;28;20121;-76
2023/03/06 04:20:45;;;;;;;2.85;1.42;;;;;;;;;;5072387;28;20050;-76
2023/03/06 04:23:11;;;;;;;3.38;1.40;;;;;;;;;;5072731;28;20044;-76
2023/03/06 04:25:38;;;;;;;3.70;1.60;;;;;;;;;;5060041;28;20125;-76
2023/03/06 04:28:04;;;;;;;2.53;1.20;;;;;;;;;;5070955;28;20052;-77
2023/03/06 04:30:30;;;;;;;4.32;1.10;;;;;;;;;;5073858;28;20052;-76
2023/03/06 04:32:57;;;;;;;3.78;1.30;;;;;;;;;;5069558;28;21906;-77
2023/03/06 04:35:23;;;;;;;3.70;1.20;;;;;;;;;;5062490;28;20090;-77
2023/03/06 04:37:49;;;;;;;2.67;1.35;;;;;;;;;;5059376;28;20051;-77
2023/03/06 04:40:20;;;;;;;2.83;1.27;;;;;;;;;;5072400;28;20044;-76
2023/03/06 04:42:46;;;;;;;3.28;1.48;;;;;;;;;;5072095;28;20080;-76
2023/03/06 04:45:12;;;;;;;3.40;1.70;;;;;;;;;;5072176;28;20037;-77
2023/03/06 04:47:39;;;;;;;2.60;1.20;;;;;;;;;;5055367;28;20044;-77
2023/03/06 04:50:05;;;;;;;2.90;1.38;;;;;;;;;;5055104;28;20136;-77
2023/03/06 04:52:31;;;;;;;3.55;1.10;;;;;;;;;;5062231;28;20044;-77
2023/03/06 04:54:57;;;;;;;3.10;1.05;;;;;;;;;;5070756;28;20123;-77
2023/03/06 04:57:23;;;;;;;3.47;1.10;;;;;;;;;;5058960;28;20072;-77
2023/03/06 04:59:50;;;;;;;2.72;0.90;;;;;;;;;;5072007;28;20398;-77
2023/03/06 05:02:16;;;;;;;2.13;1.00;;;;;;;;;;5034074;28;20123;-77
2023/03/06 05:04:43;;;;;;;4.80;1.20;;;;;;;;;;5051079;28;20044;-76
2023/03/06 05:07:09;;;;;;;2.75;1.27;;;;;;;;;;5052628;28;20041;-77
2023/03/06 05:09:35;;;;;;;2.75;1.00;;;;;;;;;;5051848;28;20048;-77
2023/03/06 05:12:01;;;;;;;1.90;1.00;;;;;;;;;;5051814;28;20052;-78
2023/03/06 05:14:31;;;;;;;2.55;0.93;;;;;;;;;;5051923;28;20483;-77
2023/03/06 05:16:57;;;;;;;2.40;1.20;;;;;;;;;;5051416;28;20067;-77
2023/03/06 05:19:23;;;;;;;2.58;1.10;;;;;;;;;;5068476;28;20072;-77
2023/03/06 05:21:49;;;;;;;2.20;1.10;;;;;;;;;;5052520;28;20495;-77
2023/03/06 05:24:15;;;;;;;5.22;1.20;;;;;;;;;;5051484;28;20041;-77
2023/03/06 05:26:41;;;;;;;2.15;1.27;;;;;;;;;;5051531;28;20057;-77
2023/03/06 05:29:07;;;;;;;2.67;1.48;;;;;;;;;;5052536;28;20102;-77
2023/03/06 05:31:33;;;;;;;2.65;1.10;;;;;;;;;;5051521;28;20045;-78
2023/03/06 05:34:00;;;;;;;2.13;1.02;;;;;;;;;;5051588;28;20076;-77
2023/03/06 05:36:26;;;;;;;3.72;1.00;;;;;;;;;;5068472;28;20436;-77
2023/03/06 05:38:52;;;;;;;2.53;1.08;;;;;;;;;;5051341;28;20097;-77
2023/03/06 05:41:18;;;;;;;2.17;1.10;;;;;;;;;;5051304;28;20140;-77
2023/03/06 05:43:44;;;;;;;3.28;1.27;;;;;;;;;;5043757;28;20117;-77
2023/03/06 05:46:10;;;;;;;2.45;1.10;;;;;;;;;;5028733;28;20033;-77
2023/03/06 05:48:37;;;;;;;1.95;1.00;;;;;;;;;;5052523;28;20515;-77
2023/03/06 05:51:03;;;;;;;2.47;1.08;;;;;;;;;;5050764;28;20067;-76
2023/03/06 05:53:30;;;;;;;4.18;1.42;;;;;;;;;;5067329;28;20041;-76
2023/03/06 05:55:57;;;;;;;2.80;1.30;;;;;;;;;;5071158;28;20076;-76
2023/03/06 05:58:23;;;;;;;3.38;1.20;;;;;;;;;;5056972;28;20464;-77
2023/03/06 06:00:49;;;;;;;4.50;1.50;;;;;;;;;;5064119;28;20036;-76
2023/03/06 06:03:15;;;;;;;2.92;1.30;;;;;;;;;;5052450;28;20064;-76
2023/03/06 06:05:41;;;;;;;2.55;1.10;;;;;;;;;;5070200;28;20111;-77
2023/03/06 06:08:07;;;;;;;2.28;1.00;;;;;;;;;;5054349;28;20044;-77
2023/03/06 06:10:33;;;;;;;3.03;1.20;;;;;;;;;;5040217;28;20036;-76
2023/03/06 06:12:59;;;;;;;3.67;1.60;;;;;;;;;;5061187;28;20040;-76
2023/03/06 06:15:27;;;;;;;2.40;1.38;;;;;;;;;;5067660;28;20051;-76
2023/03/06 06:17:54;;;;;;;3.33;1.30;;;;;;;;;;5070775;28;20048;-76
2023/03/06 06:20:20;;;;;;;3.55;1.45;;;;;;;;;;5071192;28;20391;-76
2023/03/06 06:22:46;;;;;;;3.42;1.42;;;;;;;;;;5070727;28;20037;-76
2023/03/06 06:25:13;;;;;;;3.55;1.50;;;;;;;;;;5058585;28;20049;-76
2023/03/06 06:27:39;;;;;;;4.07;1.70;;;;;;;;;;5055795;28;20135;-76
2023/03/06 06:30:06;;;;;;;3.08;1.77;;;;;;;;;;5054496;28;20036;-76
2023/03/06 06:32:32;;;;;;;3.42;1.67;;;;;;;;;;5070846;28;20352;-76
2023/03/06 06:34:58;;;;;;;5.70;2.38;;;;;;;;;;5070631;28;20394;-76
2023/03/06 06:37:24;;;;;;;3.70;1.85;;;;;;;;;;5070032;28;20040;-76
2023/03/06 06:39:51;;;;;;;3.08;1.83;;;;;;;;;;5058571;28;20044;-77
2023/03/06 06:42:17;;;;;;;5.60;2.25;;;;;;;;;;5070667;28;20102;-77
2023/03/06 06:44:44;;;;;;;6.22;3.15;;;;;;;;;;5070797;28;20047;-76
2023/03/06 06:47:10;;;;;;;7.63;2.67;;;;;;;;;;5071868;28;20064;-77
2023/03/06 06:49:36;;;;;;;5.90;2.80;;;;;;;;;;5071630;28;20040;-77
2023/03/06 06:52:03;;;;;;;4.68;2.22;;;;;;;;;;5051415;28;20510;-77
2023/03/06 06:54:29;;;;;;;4.15;1.77;;;;;;;;;;5051646;28;20553;-77
2023/03/06 06:56:55;;;;;;;5.63;2.40;;;;;;;;;;5068778;28;20036;-77
2023/03/06 06:59:22;;;;;;;4.68;1.88;;;;;;;;;;5070506;28;20379;-77
2023/03/06 07:01:48;;;;;;;3.13;1.85;;;;;;;;;;5056697;28;20103;-77
2023/03/06 07:04:15;;;;;;;4.22;2.08;;;;;;;;;;5059107;28;20037;-77
2023/03/06 07:06:41;;;;;;;2.95;1.60;;;;;;;;;;5055828;28;20480;-77
2023/03/06 07:09:07;;;;;;;5.35;2.05;;;;;;;;;;5053628;28;20056;-77
2023/03/06 07:11:34;;;;;;;4.30;2.72;;;;;;;;;;5054112;28;20098;-77
2023/03/06 07:14:00;;;;;;;6.82;3.00;;;;;;;;;;5053716;28;20056;-77
2023/03/06 07:16:26;;;;;;;6.82;3.05;;;;;;;;;;5054288;28;20110;-77
2023/03/06 07:18:52;;;;;;;4.82;3.38;;;;;;;;;;5054074;28;20483;-77
2023/03/06 07:21:19;;;;;;;4.50;2.50;;;;;;;;;;5054813;28;20372;-77
2023/03/06 07:23:45;;;;;;;5.00;2.47;;;;;;;;;;5053558;28;20041;-77
2023/03/06 07:26:11;;;;;;;3.22;2.08;;;;;;;;;;5053159;28;20057;-77
2023/03/06 07:28:37;;;;;;;5.20;2.30;;;;;;;;;;5053914;28;20495;-77
2023/03/06 07:31:07;;;;;;;3.78;1.90;;;;;;;;;;5036643;28;20041;-77
2023/03/06 07:33:33;;;;;;;3.55;1.90;;;;;;;;;;5070313;28;20044;-77
2023/03/06 07:35:59;;;;;;;2.85;1.73;;;;;;;;;;5054767;28;20493;-77
2023/03/06 07:38:25;;;;;;;2.70;1.50;;;;;;;;;;5053277;28;20049;-78
2023/03/06 07:40:52;;;;;;;3.40;1.65;;;;;;;;;;5053998;28;20373;-78
2023/03/06 07:43:18;;;;;;;4.38;1.70;;;;;;;;;;5054218;28;20044;-77
2023/03/06 07:45:45;;;;;;;2.65;1.55;;;;;;;;;;5054765;28;20403;-77
2023/03/06 07:48:12;;;;;;;2.75;1.40;;;;;;;;;;5036495;28;20128;-77
2023/03/06 07:50:38;;;;;;;2.17;1.30;;;;;;;;;;5053673;28;20049;-79
2023/03/06 07:53:04;;;;;;;2.15;1.33;;;;;;;;;;5067726;28;20056;-79
2023/03/06 07:55:30;;;;;;;2.78;1.40;;;;;;;;;;5073371;28;20514;-78
2023/03/06 07:57:56;;;;;;;3.38;1.50;;;;;;;;;;5075021;28;20080;-78
2023/03/06 08:00:23;;;;;;;2.70;1.50;;;;;;;;;;5069534;28;20048;-78
2023/03/06 08:02:49;;;;;;;3.58;1.55;;;;;;;;;;5046741;28;20402;-78
2023/03/06 08:05:15;;;;;;;2.85;1.40;;;;;;;;;;5058771;28;20043;-78
2023/03/06 08:07:43;;;;;;;2.88;1.30;;;;;;;;;;5073129;28;20032;-79
2023/03/06 08:10:11;;;;;;;3.55;1.40;;;;;;;;;;5072971;28;20050;-78
2023/03/06 08:12:37;;;;;;;2.10;1.30;;;;;;;;;;5060606;28;20075;-79
2023/03/06 08:15:04;;;;;;;2.90;1.33;;;;;;;;;;5071593;28;20498;-79
2023/03/06 08:17:30;;;;;;;2.60;1.30;;;;;;;;;;5005387;28;20068;-79
2023/03/06 08:19:56;;;;;;;2.22;0.90;;;;;;;;;;5054084;28;20044;-79
2023/03/06 08:22:22;;;;;;;5.80;1.10;;;;;;;;;;5054132;28;20041;-79
2023/03/06 08:24:48;;;;;;;3.75;1.15;;;;;;;;;;5053807;28;20032;-79
2023/03/06 08:27:14;;;;;;;2.60;1.10;;;;;;;;;;5035708;28;20102;-79
2023/03/06 08:29:40;;;;;;;2.55;1.30;;;;;;;;;;5053823;28;20556;-77
2023/03/06 08:32:09;;;;;;;2.10;1.20;;;;;;;;;;5052600;28;20132;-77
2023/03/06 08:34:38;;;;;;;2.75;1.13;;;;;;;;;;5052331;28;20045;-77
2023/03/06 08:37:04;;;;;;;1.88;1.02;;;;;;;;;;5052995;28;20376;-77
2023/03/06 08:39:30;;;;;;;2.65;1.00;;;;;;;;;;5052092;28;20421;-77
2023/03/06 08:41:56;;;;;;;2.72;0.98;;;;;;;;;;5053610;28;20041;-77
2023/03/06 08:44:23;;;;;;;1.90;1.10;;;;;;;;;;5052214;28;20103;-77
2023/03/06 08:46:49;;;;;;;1.60;0.90;;;;;;;;;;5068771;28;20094;-77
2023/03/06 08:49:15;;;;;;;2.67;1.00;;;;;;;;;;5051856;28;20056;-77
2023/03/06 08:51:41;;;;;;;2.13;1.00;;;;;;;;;;5054615;28;20128;-77
2023/03/06 08:54:10;;;;;;;1.80;0.75;;;;;;;;;;5065109;28;20040;-77
2023/03/06 08:56:36;;;;;;;2.08;0.80;;;;;;;;;;5067453;28;20071;-76
2023/03/06 08:59:03;;;;;;;2.50;0.90;;;;;;;;;;5058609;28;20124;-77
2023/03/06 09:01:35;;;;;;;2.28;1.10;;;;;;;;;;5059265;28;20136;-77
2023/03/06 09:04:03;;;;;;;2.80;1.00;;;;;;;;;;5052236;28;20458;-77
2023/03/06 09:06:31;;;;;;;3.78;1.02;;;;;;;;;;5063737;28;20083;-77
2023/03/06 09:08:57;;;;;;;3.70;0.90;;;;;;;;;;5054859;28;20082;-77
2023/03/06 09:11:24;;;;;;;2.42;0.90;;;;;;;;;;5062034;28;20044;-77
2023/03/06 09:13:50;;;;;;;4.28;1.27;;;;;;;;;;5055264;28;20398;-78
2023/03/06 09:16:16;;;;;;;3.05;1.30;;;;;;;;;;5072560;28;20044;-74
2023/03/06 09:18:43;;;;;;;3.78;1.33;;;;;;;;;;5071208;28;20487;-75
2023/03/06 09:21:09;;;;;;;4.07;1.50;;;;;;;;;;5052076;28;20513;-75
2023/03/06 09:23:36;;;;;;;3.13;1.40;;;;;;;;;;5051647;28;20564;-75
2023/03/06 09:26:02;;;;;;;3.08;1.25;;;;;;;;;;5070052;28;20387;-74
2023/03/06 09:28:28;;;;;;;2.70;1.50;;;;;;;;;;5071822;28;20110;-74
2023/03/06 09:30:54;;;;;;;4.70;1.45;;;;;;;;;;5071377;28;20399;-74
2023/03/06 09:33:21;;;;;;;3.28;1.20;;;;;;;;;;5071225;28;20044;-74
2023/03/06 09:35:49;;;;;;;4.25;1.40;;;;;;;;;;5054721;28;20059;-73
2023/03/06 09:38:16;;;;;;;4.35;1.08;;;;;;;;;;5071317;28;20052;-76
2023/03/06 09:40:52;;;;;;;5.00;1.20;;;;;;;;;;5071927;28;20470;-77
2023/03/06 09:43:17;;;;;;;;;;;;;;;;;;5073438;28;20036;-77
2023/03/06 09:45:44;;;;;;;3.63;0.88;;;;;;;;;;5058279;28;19917;-78
2023/03/06 09:48:14;;;;;;;3.63;0.80;;;;;;;;;;5035124;28;20041;-77
2023/03/06 09:50:45;;;;;;;2.35;1.13;;;;;;;;;;5054996;28;20037;-77
2023/03/06 09:53:23;;;;;;;2.75;1.13;;;;;;;;;;5065952;28;20048;-77
2023/03/06 09:55:55;;;;;;;3.95;0.95;;;;;;;;;;5071579;28;20398;-77
2023/03/06 09:58:24;;;;;;;3.30;0.90;;;;;;;;;;5072328;28;20044;-77
2023/03/06 10:01:03;;;;;;;3.75;0.88;;;;;;;;;;5064689;28;20044;-77
2023/03/06 10:03:32;;;;;;;3.30;0.80;;;;;;;;;;5052045;28;20056;-78
2023/03/06 10:06:03;;;;;;;3.15;0.90;;;;;;;;;;5054505;28;20036;-78
2023/03/06 10:08:34;;;;;;;2.75;0.60;;;;;;;;;;5054161;28;20044;-78
2023/03/06 10:11:02;;;;;;;5.47;0.80;;;;;;;;;;5058334;28;20075;-78
2023/03/06 10:13:36;;;;;;;3.53;0.90;;;;;;;;;;5057906;28;20465;-79
2023/03/06 10:16:22;;;;;;;3.20;0.85;;;;;;;;;;5044398;28;20044;-78
2023/03/06 10:18:48;;;;;;;;;;;;;;;;;;5057067;28;20584;-79
2023/03/06 10:21:23;;;;;;;2.72;0.85;;;;;;;;;;5064998;28;19960;-79
2023/03/06 10:23:52;;;;;;;3.27;0.70;;;;;;;;;;5051072;28;20047;-79
2023/03/06 10:26:26;;;;;;;4.50;0.73;;;;;;;;;;5057923;28;20419;-78
2023/03/06 10:29:22;;;;;;;4.47;0.70;;;;;;;;;;5057309;28;20051;-79
2023/03/06 10:31:53;;;;;;;3.70;0.70;;;;;;;;;;5070903;28;20500;-78
2023/03/06 10:34:28;;;;;;;2.22;0.50;;;;;;;;;;5067899;28;20037;-78
2023/03/06 10:36:57;;;;;;;2.47;0.95;;;;;;;;;;5050693;28;20049;-78
2023/03/06 10:39:23;;;;;;;5.40;0.65;;;;;;;;;;5054441;28;20055;-78
2023/03/06 10:41:50;;;;;;;4.40;0.88;;;;;;;;;;5074963;28;20382;-77
2023/03/06 10:44:17;;;;;;;2.83;0.70;;;;;;;;;;5074893;28;20364;-79
2023/03/06 10:46:44;;;;;;;2.92;0.80;;;;;;;;;;5067662;28;20036;-80
2023/03/06 10:49:22;;;;;;;6.30;1.70;;;;;;;;;;5069319;28;20051;-80
2023/03/06 10:52:02;;;;;;;3.47;1.10;;;;;;;;;;5051537;28;20036;-80
2023/03/06 10:54:30;;;;;;;3.28;1.00;;;;;;;;;;5054660;28;20132;-79
2023/03/06 10:56:56;;;;;;;3.58;0.70;;;;;;;;;;5057712;28;20036;-80
2023/03/06 10:59:29;;;;;;;3.65;0.80;;;;;;;;;;5065264;28;20078;-79
2023/03/06 11:01:56;;;;;;;2.97;0.70;;;;;;;;;;5056873;28;20499;-79
2023/03/06 11:04:27;;;;;;;3.03;0.70;;;;;;;;;;5074429;28;20048;-80
2023/03/06 11:07:13;;;;;;;1.88;0.55;;;;;;;;;;5043422;28;20047;-80
2023/03/06 11:09:39;;;;;;;2.42;0.50;;;;;;;;;;5074314;28;20044;-80
2023/03/06 11:12:24;;;;;;;5.90;1.10;;;;;;;;;;5073934;28;20051;-80
2023/03/06 11:15:08;;;;;;;4.50;1.27;;;;;;;;;;5075211;28;20040;-81
2023/03/06 11:17:48;;;;;;;5.28;1.60;;;;;;;;;;5075178;28;20036;-80
2023/03/06 11:20:21;;;;;;;6.85;2.00;;;;;;;;;;5074772;28;20040;-80
2023/03/06 11:22:58;;;;;;;7.45;3.00;;;;;;;;;;5060196;28;20123;-80
2023/03/06 11:25:47;;;;;;;5.75;2.22;;;;;;;;;;5061469;28;20044;-80
2023/03/06 11:28:22;;;;;;;2.70;0.68;;;;;;;;;;5051484;28;20063;-80
2023/03/06 11:31:14;;;;;;;1.85;0.57;;;;;;;;;;5073816;28;20406;-79
2023/03/06 11:33:40;;;;;;;2.38;0.50;;;;;;;;;;5061998;28;20107;-81
2023/03/06 11:36:15;;;;;;;2.00;0.52;;;;;;;;;;5054952;28;20056;-80
2023/03/06 11:38:43;;;;;;;1.77;0.45;;;;;;;;;;5053523;28;20056;-80
2023/03/06 11:41:15;;;;;;;2.33;0.50;;;;;;;;;;5057219;28;20547;-79
2023/03/06 11:43:54;;;;;;;4.20;0.60;;;;;;;;;;5074754;28;20032;-79
2023/03/06 11:46:24;;;;;;;2.78;0.60;;;;;;;;;;5059609;28;20043;-79
2023/03/06 11:48:56;;;;;;;1.35;0.50;;;;;;;;;;5064272;28;20072;-80
2023/03/06 11:51:25;;;;;;;2.85;0.50;;;;;;;;;;5056517;28;20090;-80
2023/03/06 11:53:51;;;;;;;1.23;0.40;;;;;;;;;;5043056;28;20094;-79
2023/03/06 11:56:41;;;;;;;0.82;0.40;;;;;;;;;;5073707;28;20451;-79
2023/03/06 11:59:27;;;;;;;1.83;0.68;;;;;;;;;;5048137;28;20379;-79
2023/03/06 12:01:54;;;;;;;;;;;;;;;;;;5059437;28;20495;-79
2023/03/06 12:04:46;;;;;;;2.13;0.70;;;;;;;;;;5073396;28;19923;-79
2023/03/06 12:07:32;;;;;;;3.45;0.93;;;;;;;;;;5069422;28;20044;-79
2023/03/06 12:10:05;;;;;;;4.28;0.80;;;;;;;;;;5067011;28;20082;-80
2023/03/06 12:12:47;;;;;;;6.68;1.00;;;;;;;;;;5059114;28;20043;-80
2023/03/06 12:15:13;;;;;;;3.58;0.80;;;;;;;;;;5073006;28;20119;-81
2023/03/06 12:18:08;;;;;;;4.13;0.90;;;;;;;;;;5072544;28;20044;-81
2023/03/06 12:20:43;;;;;;;3.47;1.02;;;;;;;;;;5055766;28;20049;-80
2023/03/06 12:23:24;;;;;;;2.72;0.70;;;;;;;;;;5056994;28;20111;-80
2023/03/06 12:25:55;;;;;;;3.67;1.02;;;;;;;;;;5052788;28;20506;-80
2023/03/06 12:28:40;;;;;;;3.58;0.90;;;;;;;;;;5054024;28;20045;-80
2023/03/06 12:31:12;;;;;;;3.78;1.38;;;;;;;;;;5052656;28;20056;-80
2023/03/06 12:33:41;;;;;;;3.80;0.73;;;;;;;;;;5054037;28;20479;-80
2023/03/06 12:36:26;;;;;;;2.65;0.70;;;;;;;;;;5052813;28;20384;-80
2023/03/06 12:39:02;;;;;;;3.45;0.70;;;;;;;;;;5052332;28;20051;-81
2023/03/06 12:41:34;;;;;;;2.75;0.68;;;;;;;;;;5053695;28;20033;-80
2023/03/06 12:44:14;;;;;;;2.03;0.80;;;;;;;;;;5053902;28;20502;-80
2023/03/06 12:46:46;;;;;;;2.20;0.60;;;;;;;;;;5035698;28;20040;-79
2023/03/06 12:49:24;;;;;;;1.98;0.50;;;;;;;;;;5052374;28;20052;-80
2023/03/06 12:51:51;;;;;;;2.00;0.50;;;;;;;;;;5038765;28;20040;-79
2023/03/06 12:54:18;;;;;;;1.88;0.60;;;;;;;;;;5055870;28;20051;-79
2023/03/06 12:56:45;;;;;;;1.73;0.60;;;;;;;;;;5071831;28;20051;-79
2023/03/06 12:59:29;;;;;;;2.22;0.90;;;;;;;;;;5073495;28;20048;-79
2023/03/06 13:02:22;;;;;;;4.15;0.60;;;;;;;;;;5057333;28;20045;-79
2023/03/06 13:05:00;;;;;;;4.03;1.60;;;;;;;;;;5053137;28;20051;-79
2023/03/06 13:07:33;;;;;;;4.07;1.27;;;;;;;;;;5059994;28;20048;-79
2023/03/06 13:10:07;;;;;;;2.13;0.70;;;;;;;;;;5051803;28;20045;-79
2023/03/06 13:12:45;;;;;;;6.75;2.45;;;;;;;;;;5027124;28;20056;-80
2023/03/06 13:15:23;;;;;;;3.10;0.70;;;;;;;;;;5051917;28;20045;-79
2023/03/06 13:17:49;;;;;;;2.72;0.52;;;;;;;;;;5051293;28;20047;-79
2023/03/06 13:20:24;;;;;;;2.17;0.63;;;;;;;;;;5051847;28;20041;-79
2023/03/06 13:22:50;;;;;;;3.00;0.80;;;;;;;;;;5051514;28;20044;-79
2023/03/06 13:25:16;;;;;;;3.17;0.68;;;;;;;;;;5051636;28;20279;-79
2023/03/06 13:27:52;;;;;;;3.95;1.20;;;;;;;;;;5034884;28;20045;-79
2023/03/06 13:30:21;;;;;;;3.38;1.10;;;;;;;;;;5051829;28;20116;-79
2023/03/06 13:32:48;;;;;;;4.13;1.10;;;;;;;;;;5051257;28;20052;-78
2023/03/06 13:35:30;;;;;;;4.45;1.40;;;;;;;;;;5051460;28;20122;-79
2023/03/06 13:37:57;;;;;;;5.13;2.13;;;;;;;;;;5051405;28;20048;-79
2023/03/06 13:40:29;;;;;;;4.43;1.75;;;;;;;;;;5051554;28;20483;-78
2023/03/06 13:42:58;;;;;;;5.15;1.83;;;;;;;;;;5051158;28;20048;-79
2023/03/06 13:45:39;;;;;;;4.50;1.45;;;;;;;;;;5051169;28;20037;-79
2023/03/06 13:48:06;;;;;;;5.30;1.38;;;;;;;;;;5051051;28;20041;-79
2023/03/06 13:50:38;;;;;;;12.98;1.10;;;;;;;;;;5058029;28;20036;-78
2023/03/06 13:53:04;;;;;;;4.82;2.13;;;;;;;;;;5071386;28;20052;-79
2023/03/06 13:55:37;;;;;;;4.10;1.00;;;;;;;;;;5054334;28;20044;-78
2023/03/06 13:58:18;;;;;;;4.10;1.92;;;;;;;;;;5058016;28;20051;-79
2023/03/06 14:00:51;;;;;;;3.97;1.70;;;;;;;;;;5039154;28;20041;-78
2023/03/06 14:03:17;;;;;;;6.88;1.70;;;;;;;;;;5064750;28;20534;-78
2023/03/06 14:05:44;;;;;;;4.10;1.55;;;;;;;;;;5070868;28;20063;-78
2023/03/06 14:08:22;;;;;;;3.22;1.60;;;;;;;;;;5070869;28;20049;-78
2023/03/06 14:10:57;;;;;;;3.75;1.10;;;;;;;;;;5071186;28;20483;-78
2023/03/06 14:13:26;;;;;;;2.75;0.93;;;;;;;;;;5070896;28;20047;-78
2023/03/06 14:15:53;;;;;;;3.58;1.20;;;;;;;;;;5053882;28;20119;-78
2023/03/06 14:18:22;;;;;;;1.85;0.93;;;;;;;;;;5072259;28;20147;-79
2023/03/06 14:20:57;;;;;;;2.70;1.40;;;;;;;;;;5070981;28;20040;-78
2023/03/06 14:23:23;;;;;;;6.00;2.80;;;;;;;;;;5072373;28;20044;-78
2023/03/06 14:25:56;;;;;;;6.78;3.40;;;;;;;;;;5054171;28;20050;-79
2023/03/06 14:28:26;;;;;;;3.08;1.40;;;;;;;;;;5070744;28;20052;-78
2023/03/06 14:30:54;;;;;;;4.60;1.63;;;;;;;;;;5070770;28;20136;-78
2023/03/06 14:33:31;;;;;;;9.70;2.38;;;;;;;;;;5053910;28;20045;-78
2023/03/06 14:35:59;;;;;;;5.47;1.50;;;;;;;;;;5068293;28;20507;-78
2023/03/06 14:38:26;;;;;;;2.70;1.20;;;;;;;;;;5050701;28;20447;-78
2023/03/06 14:40:52;;;;;;;3.55;1.30;;;;;;;;;;5050907;28;20087;-78
2023/03/06 14:43:20;;;;;;;3.40;1.30;;;;;;;;;;5051703;28;20041;-75
2023/03/06 14:46:12;;;;;;;4.20;1.45;;;;;;;;;;5051837;28;20045;-74
2023/03/06 14:48:40;;;;;;;2.47;1.10;;;;;;;;;;5050206;28;20052;-77
2023/03/06 14:51:12;;;;;;;3.30;1.33;;;;;;;;;;5034412;28;20514;-78
2023/03/06 14:53:38;;;;;;;2.95;1.00;;;;;;;;;;5055478;28;20422;-77